sensor_id;sensor_type;location;lat;lon;timestamp;pressure;altitude;pressure_sealevel;temperature;humidity
76637;BME280;65532;52.124;5.480;2023-06-22T00:01:18;101914.13;;;16.34;89.09
76637;BME280;65532;52.124;5.480;2023-06-22T00:03:45;101908.44;;;16.24;88.81
76637;BME280;65532;52.124;5.480;2023-06-22T00:06:12;101913.47;;;16.15;87.73
76637;BME280;65532;52.124;5.480;2023-06-22T00:08:39;101918.22;;;16.20;87.01
76637;BME280;65532;52.124;5.480;2023-06-22T00:11:05;101918.31;;;16.25;86.60
76637;BME280;65532;52.124;5.480;2023-06-22T00:13:32;101916.44;;;16.26;86.79
76637;BME280;65532;52.124;5.480;2023-06-22T00:15:58;101920.22;;;16.25;87.51
76637;BME280;65532;52.124;5.480;2023-06-22T00:18:25;101916.88;;;16.23;87.89
76637;BME280;65532;52.124;5.480;2023-06-22T00:20:57;101913.81;;;16.19;87.94
76637;BME280;65532;52.124;5.480;2023-06-22T00:23:25;101907.78;;;16.17;87.77
76637;BME280;65532;52.124;5.480;2023-06-22T00:25:51;101913.47;;;16.15;87.77
76637;BME280;65532;52.124;5.480;2023-06-22T00:28:18;101913.72;;;16.14;87.98
76637;BME280;65532;52.124;5.480;2023-06-22T00:30:45;101903.41;;;16.04;88.20
76637;BME280;65532;52.124;5.480;2023-06-22T00:33:12;101898.94;;;15.86;88.24
76637;BME280;65532;52.124;5.480;2023-06-22T00:35:39;101900.00;;;15.74;87.89
76637;BME280;65532;52.124;5.480;2023-06-22T00:38:08;101893.13;;;15.71;86.61
76637;BME280;65532;52.124;5.480;2023-06-22T00:40:35;101897.53;;;15.72;85.97
76637;BME280;65532;52.124;5.480;2023-06-22T00:43:02;101901.31;;;15.71;85.28
76637;BME280;65532;52.124;5.480;2023-06-22T00:45:28;101896.84;;;15.65;84.49
76637;BME280;65532;52.124;5.480;2023-06-22T00:47:56;101901.09;;;15.61;82.85
76637;BME280;65532;52.124;5.480;2023-06-22T00:50:26;101885.09;;;15.65;81.91
76637;BME280;65532;52.124;5.480;2023-06-22T00:52:56;101892.78;;;15.68;83.13
76637;BME280;65532;52.124;5.480;2023-06-22T00:55:23;101885.31;;;15.63;84.34
76637;BME280;65532;52.124;5.480;2023-06-22T00:57:50;101895.03;;;15.59;84.32
76637;BME280;65532;52.124;5.480;2023-06-22T01:00:17;101895.97;;;15.53;84.08
76637;BME280;65532;52.124;5.480;2023-06-22T01:02:46;101899.41;;;15.48;82.29
76637;BME280;65532;52.124;5.480;2023-06-22T01:05:14;101885.63;;;15.43;81.17
76637;BME280;65532;52.124;5.480;2023-06-22T01:10:18;101883.75;;;15.32;74.37
76637;BME280;65532;52.124;5.480;2023-06-22T01:12:52;101892.88;;;15.38;75.82
76637;BME280;65532;52.124;5.480;2023-06-22T01:15:34;101900.47;;;15.36;78.89
76637;BME280;65532;52.124;5.480;2023-06-22T01:18:04;101905.13;;;15.35;80.10
76637;BME280;65532;52.124;5.480;2023-06-22T01:20:34;101899.41;;;15.25;80.71
76637;BME280;65532;52.124;5.480;2023-06-22T01:23:20;101891.91;;;15.09;83.47
76637;BME280;65532;52.124;5.480;2023-06-22T01:26:05;101895.81;;;14.89;79.76
76637;BME280;65532;52.124;5.480;2023-06-22T01:28:45;101890.22;;;14.84;76.68
76637;BME280;65532;52.124;5.480;2023-06-22T01:31:16;101889.16;;;14.85;73.29
76637;BME280;65532;52.124;5.480;2023-06-22T01:33:45;101896.97;;;14.93;71.89
76637;BME280;65532;52.124;5.480;2023-06-22T01:36:13;101894.63;;;14.97;72.97
76637;BME280;65532;52.124;5.480;2023-06-22T01:38:41;101889.16;;;14.97;73.93
76637;BME280;65532;52.124;5.480;2023-06-22T01:41:08;101890.22;;;14.96;74.22
76637;BME280;65532;52.124;5.480;2023-06-22T01:43:35;101886.31;;;14.92;74.13
76637;BME280;65532;52.124;5.480;2023-06-22T01:46:03;101891.75;;;14.92;74.73
76637;BME280;65532;52.124;5.480;2023-06-22T01:48:30;101886.19;;;14.87;75.20
76637;BME280;65532;52.124;5.480;2023-06-22T01:50:58;101884.97;;;14.83;75.13
76637;BME280;65532;52.124;5.480;2023-06-22T01:53:25;101886.03;;;14.82;74.53
76637;BME280;65532;52.124;5.480;2023-06-22T01:55:52;101882.13;;;14.78;73.64
76637;BME280;65532;52.124;5.480;2023-06-22T01:58:21;101881.06;;;14.79;73.00
76637;BME280;65532;52.124;5.480;2023-06-22T02:00:54;101880.94;;;14.74;74.39
76637;BME280;65532;52.124;5.480;2023-06-22T02:03:30;101879.75;;;14.70;76.02
76637;BME280;65532;52.124;5.480;2023-06-22T02:06:03;101876.28;;;14.62;75.71
76637;BME280;65532;52.124;5.480;2023-06-22T02:08:41;101875.09;;;14.58;75.52
76637;BME280;65532;52.124;5.480;2023-06-22T02:11:09;101870.09;;;14.55;75.42
76637;BME280;65532;52.124;5.480;2023-06-22T02:13:38;101875.78;;;14.54;74.64
76637;BME280;65532;52.124;5.480;2023-06-22T02:16:13;101874.50;;;14.56;74.10
76637;BME280;65532;52.124;5.480;2023-06-22T02:18:48;101877.59;;;14.60;73.79
76637;BME280;65532;52.124;5.480;2023-06-22T02:21:20;101869.16;;;14.61;75.02
76637;BME280;65532;52.124;5.480;2023-06-22T02:23:47;101870.94;;;14.56;74.81
76637;BME280;65532;52.124;5.480;2023-06-22T02:26:16;101867.22;;;14.50;72.42
76637;BME280;65532;52.124;5.480;2023-06-22T02:28:43;101866.63;;;14.48;71.36
76637;BME280;65532;52.124;5.480;2023-06-22T02:31:09;101874.22;;;14.46;69.12
76637;BME280;65532;52.124;5.480;2023-06-22T02:33:36;101869.94;;;14.50;68.70
76637;BME280;65532;52.124;5.480;2023-06-22T02:36:03;101866.16;;;14.51;70.31
76637;BME280;65532;52.124;5.480;2023-06-22T02:38:31;101875.28;;;14.45;72.37
76637;BME280;65532;52.124;5.480;2023-06-22T02:41:01;101870.25;;;14.42;72.83
76637;BME280;65532;52.124;5.480;2023-06-22T02:43:27;101874.06;;;14.41;73.43
76637;BME280;65532;52.124;5.480;2023-06-22T02:45:55;101869.66;;;14.40;75.51
76637;BME280;65532;52.124;5.480;2023-06-22T02:48:21;101857.78;;;14.34;76.57
76637;BME280;65532;52.124;5.480;2023-06-22T02:50:48;101862.16;;;14.35;76.51
76637;BME280;65532;52.124;5.480;2023-06-22T02:53:14;101856.50;;;14.37;75.84
76637;BME280;65532;52.124;5.480;2023-06-22T02:55:45;101852.13;;;14.36;74.42
76637;BME280;65532;52.124;5.480;2023-06-22T02:58:11;101857.28;;;14.26;71.36
76637;BME280;65532;52.124;5.480;2023-06-22T03:00:38;101861.03;;;14.13;69.64
76637;BME280;65532;52.124;5.480;2023-06-22T03:03:05;101862.63;;;14.02;67.11
76637;BME280;65532;52.124;5.480;2023-06-22T03:05:32;101862.63;;;14.02;64.32
76637;BME280;65532;52.124;5.480;2023-06-22T03:07:59;101868.59;;;14.11;63.44
76637;BME280;65532;52.124;5.480;2023-06-22T03:10:28;101867.06;;;14.15;64.03
76637;BME280;65532;52.124;5.480;2023-06-22T03:12:55;101857.81;;;14.16;66.82
76637;BME280;65532;52.124;5.480;2023-06-22T03:15:22;101863.28;;;14.16;70.21
76637;BME280;65532;52.124;5.480;2023-06-22T03:17:50;101873.81;;;14.13;73.69
76637;BME280;65532;52.124;5.480;2023-06-22T03:20:16;101872.16;;;14.12;74.72
76637;BME280;65532;52.124;5.480;2023-06-22T03:22:43;101873.81;;;14.13;75.55
76637;BME280;65532;52.124;5.480;2023-06-22T03:25:10;101868.81;;;14.09;76.80
76637;BME280;65532;52.124;5.480;2023-06-22T03:27:42;101859.28;;;14.00;77.30
76637;BME280;65532;52.124;5.480;2023-06-22T03:30:10;101863.22;;;13.86;75.95
76637;BME280;65532;52.124;5.480;2023-06-22T03:32:37;101851.13;;;13.82;73.05
76637;BME280;65532;52.124;5.480;2023-06-22T03:35:06;101844.50;;;13.78;69.08
76637;BME280;65532;52.124;5.480;2023-06-22T03:37:35;101846.16;;;13.79;65.60
76637;BME280;65532;52.124;5.480;2023-06-22T03:40:01;101852.22;;;13.81;64.03
76637;BME280;65532;52.124;5.480;2023-06-22T03:42:33;101846.03;;;13.74;62.81
76637;BME280;65532;52.124;5.480;2023-06-22T03:45:02;101851.66;;;13.72;60.76
76637;BME280;65532;52.124;5.480;2023-06-22T03:47:30;101845.84;;;13.69;57.60
76637;BME280;65532;52.124;5.480;2023-06-22T03:49:57;101847.13;;;13.66;56.12
76637;BME280;65532;52.124;5.480;2023-06-22T03:52:24;101846.78;;;13.63;55.47
76637;BME280;65532;52.124;5.480;2023-06-22T03:54:51;101836.25;;;13.66;53.25
76637;BME280;65532;52.124;5.480;2023-06-22T03:57:18;101831.63;;;13.67;50.74
76637;BME280;65532;52.124;5.480;2023-06-22T03:59:44;101839.34;;;13.70;48.95
76637;BME280;65532;52.124;5.480;2023-06-22T04:02:11;101847.69;;;13.75;47.43
76637;BME280;65532;52.124;5.480;2023-06-22T04:04:37;101832.78;;;13.77;47.29
76637;BME280;65532;52.124;5.480;2023-06-22T04:07:05;101836.94;;;13.80;48.39
76637;BME280;65532;52.124;5.480;2023-06-22T04:09:32;101836.94;;;13.80;50.06
76637;BME280;65532;52.124;5.480;2023-06-22T04:11:59;101831.03;;;13.83;50.30
76637;BME280;65532;52.124;5.480;2023-06-22T04:14:25;101833.88;;;13.88;50.74
76637;BME280;65532;52.124;5.480;2023-06-22T04:16:52;101828.84;;;13.92;50.49
76637;BME280;65532;52.124;5.480;2023-06-22T04:19:18;101826.72;;;13.94;49.69
76637;BME280;65532;52.124;5.480;2023-06-22T04:21:45;101821.88;;;13.96;46.56
76637;BME280;65532;52.124;5.480;2023-06-22T04:24:11;101824.13;;;13.99;41.95
76637;BME280;65532;52.124;5.480;2023-06-22T04:26:38;101827.97;;;14.09;38.28
76637;BME280;65532;52.124;5.480;2023-06-22T04:29:08;101828.38;;;14.25;38.24
76637;BME280;65532;52.124;5.480;2023-06-22T04:31:35;101824.88;;;14.36;43.00
76637;BME280;65532;52.124;5.480;2023-06-22T04:34:06;101825.53;;;14.50;47.75
76637;BME280;65532;52.124;5.480;2023-06-22T04:36:37;101829.00;;;14.57;53.74
76637;BME280;65532;52.124;5.480;2023-06-22T04:39:09;101826.50;;;14.55;58.12
76637;BME280;65532;52.124;5.480;2023-06-22T04:41:37;101825.16;;;14.46;56.88
76637;BME280;65532;52.124;5.480;2023-06-22T04:44:17;101828.94;;;14.45;50.60
76637;BME280;65532;52.124;5.480;2023-06-22T04:46:51;101822.00;;;14.61;47.03
76637;BME280;65532;52.124;5.480;2023-06-22T04:49:27;101826.91;;;14.71;47.31
76637;BME280;65532;52.124;5.480;2023-06-22T04:52:11;101825.84;;;14.95;47.36
76637;BME280;65532;52.124;5.480;2023-06-22T04:54:40;101832.84;;;15.14;52.12
76637;BME280;65532;52.124;5.480;2023-06-22T04:57:14;101824.41;;;15.27;59.58
76637;BME280;65532;52.124;5.480;2023-06-22T04:59:41;101830.00;;;15.33;63.22
76637;BME280;65532;52.124;5.480;2023-06-22T05:02:08;101834.03;;;15.42;63.68
76637;BME280;65532;52.124;5.480;2023-06-22T05:04:35;101835.34;;;15.51;62.80
76637;BME280;65532;52.124;5.480;2023-06-22T05:07:05;101841.13;;;15.54;60.72
76637;BME280;65532;52.124;5.480;2023-06-22T05:09:32;101834.63;;;15.67;57.66
76637;BME280;65532;52.124;5.480;2023-06-22T05:12:00;101836.69;;;15.88;56.06
76637;BME280;65532;52.124;5.480;2023-06-22T05:14:29;101833.94;;;16.00;59.29
76637;BME280;65532;52.124;5.480;2023-06-22T05:16:56;101836.72;;;16.17;59.46
76637;BME280;65532;52.124;5.480;2023-06-22T05:19:25;101837.28;;;16.93;60.26
76637;BME280;65532;52.124;5.480;2023-06-22T05:21:57;101828.38;;;17.58;80.02
76637;BME280;65532;52.124;5.480;2023-06-22T05:24:24;101828.63;;;17.56;84.62
76637;BME280;65532;52.124;5.480;2023-06-22T05:26:50;101831.75;;;17.43;86.00
76637;BME280;65532;52.124;5.480;2023-06-22T05:29:17;101828.69;;;18.00;83.54
76637;BME280;65532;52.124;5.480;2023-06-22T05:31:43;101835.66;;;18.94;88.64
76637;BME280;65532;52.124;5.480;2023-06-22T05:34:10;101839.19;;;19.31;90.73
76637;BME280;65532;52.124;5.480;2023-06-22T05:36:36;101836.69;;;19.72;90.04
76637;BME280;65532;52.124;5.480;2023-06-22T05:39:11;101836.72;;;19.77;89.16
76637;BME280;65532;52.124;5.480;2023-06-22T05:41:39;101847.28;;;20.06;89.23
76637;BME280;65532;52.124;5.480;2023-06-22T05:44:05;101835.78;;;20.24;88.00
76637;BME280;65532;52.124;5.480;2023-06-22T05:46:32;101842.44;;;20.38;87.57
76637;BME280;65532;52.124;5.480;2023-06-22T05:48:59;101835.63;;;19.78;88.24
76637;BME280;65532;52.124;5.480;2023-06-22T05:51:25;101848.81;;;19.34;89.79
76637;BME280;65532;52.124;5.480;2023-06-22T05:53:52;101839.09;;;19.16;90.36
76637;BME280;65532;52.124;5.480;2023-06-22T05:56:18;101838.38;;;19.31;90.26
76637;BME280;65532;52.124;5.480;2023-06-22T05:58:46;101840.28;;;19.25;90.56
76637;BME280;65532;52.124;5.480;2023-06-22T06:01:12;101839.44;;;19.72;90.34
76637;BME280;65532;52.124;5.480;2023-06-22T06:03:39;101851.31;;;20.71;88.43
76637;BME280;65532;52.124;5.480;2023-06-22T06:06:07;101855.69;;;21.38;87.46
76637;BME280;65532;52.124;5.480;2023-06-22T06:08:34;101851.28;;;22.17;84.21
76637;BME280;65532;52.124;5.480;2023-06-22T06:11:00;101848.19;;;23.07;79.73
76637;BME280;65532;52.124;5.480;2023-06-22T06:13:27;101841.53;;;23.08;78.03
76637;BME280;65532;52.124;5.480;2023-06-22T06:15:54;101837.28;;;23.20;77.55
76637;BME280;65532;52.124;5.480;2023-06-22T06:18:23;101835.44;;;23.64;76.88
76637;BME280;65532;52.124;5.480;2023-06-22T06:20:50;101833.41;;;23.93;74.18
76637;BME280;65532;52.124;5.480;2023-06-22T06:23:16;101830.91;;;24.15;71.87
76637;BME280;65532;52.124;5.480;2023-06-22T06:25:43;101833.16;;;24.51;70.77
76637;BME280;65532;52.124;5.480;2023-06-22T06:28:09;101833.91;;;24.38;69.62
76637;BME280;65532;52.124;5.480;2023-06-22T06:30:36;101826.41;;;24.19;71.24
76637;BME280;65532;52.124;5.480;2023-06-22T06:33:03;101819.97;;;24.05;72.10
76637;BME280;65532;52.124;5.480;2023-06-22T06:35:35;101820.56;;;24.02;72.23
76637;BME280;65532;52.124;5.480;2023-06-22T06:38:01;101806.78;;;23.97;71.67
76637;BME280;65532;52.124;5.480;2023-06-22T06:40:28;101811.97;;;24.23;70.90
76637;BME280;65532;52.124;5.480;2023-06-22T06:42:55;101814.28;;;24.15;71.99
76637;BME280;65532;52.124;5.480;2023-06-22T06:45:23;101821.03;;;24.47;70.81
76637;BME280;65532;52.124;5.480;2023-06-22T06:47:51;101815.13;;;25.19;68.17
76637;BME280;65532;52.124;5.480;2023-06-22T06:50:19;101809.81;;;25.77;63.93
76637;BME280;65532;52.124;5.480;2023-06-22T06:52:45;101806.72;;;26.28;63.28
76637;BME280;65532;52.124;5.480;2023-06-22T06:55:12;101812.81;;;26.17;62.12
76637;BME280;65532;52.124;5.480;2023-06-22T06:57:41;101810.03;;;26.17;60.51
76637;BME280;65532;52.124;5.480;2023-06-22T07:00:10;101813.09;;;25.79;62.72
76637;BME280;65532;52.124;5.480;2023-06-22T07:02:45;101809.41;;;25.43;61.65
76637;BME280;65532;52.124;5.480;2023-06-22T07:05:14;101815.13;;;25.19;62.33
76637;BME280;65532;52.124;5.480;2023-06-22T07:07:40;101812.19;;;24.45;64.37
76637;BME280;65532;52.124;5.480;2023-06-22T07:10:08;101809.88;;;24.14;67.21
76637;BME280;65532;52.124;5.480;2023-06-22T07:12:35;101807.94;;;24.15;68.42
76637;BME280;65532;52.124;5.480;2023-06-22T07:15:06;101803.16;;;24.39;66.70
76637;BME280;65532;52.124;5.480;2023-06-22T07:17:37;101811.66;;;24.62;65.65
76637;BME280;65532;52.124;5.480;2023-06-22T07:20:04;101806.81;;;24.54;65.17
76637;BME280;65532;52.124;5.480;2023-06-22T07:22:35;101803.22;;;24.86;63.80
76637;BME280;65532;52.124;5.480;2023-06-22T07:25:01;101800.59;;;24.75;64.88
76637;BME280;65532;52.124;5.480;2023-06-22T07:27:30;101800.03;;;24.92;64.07
76637;BME280;65532;52.124;5.480;2023-06-22T07:30:02;101807.47;;;24.64;64.32
76637;BME280;65532;52.124;5.480;2023-06-22T07:32:29;101808.19;;;24.70;64.56
76637;BME280;65532;52.124;5.480;2023-06-22T07:34:55;101806.31;;;25.30;62.69
76637;BME280;65532;52.124;5.480;2023-06-22T07:37:22;101805.06;;;25.50;62.08
76637;BME280;65532;52.124;5.480;2023-06-22T07:39:48;101803.72;;;25.34;61.31
76637;BME280;65532;52.124;5.480;2023-06-22T07:42:16;101794.78;;;25.23;61.37
76637;BME280;65532;52.124;5.480;2023-06-22T07:44:45;101790.56;;;25.39;61.13
76637;BME280;65532;52.124;5.480;2023-06-22T07:47:11;101789.53;;;25.08;61.95
76637;BME280;65532;52.124;5.480;2023-06-22T07:49:38;101781.47;;;25.25;61.17
76637;BME280;65532;52.124;5.480;2023-06-22T07:52:05;101782.69;;;24.87;62.68
76637;BME280;65532;52.124;5.480;2023-06-22T07:54:33;101776.81;;;24.74;62.47
76637;BME280;65532;52.124;5.480;2023-06-22T07:56:59;101776.78;;;25.07;63.31
76637;BME280;65532;52.124;5.480;2023-06-22T07:59:26;101778.53;;;25.03;61.04
76637;BME280;65532;52.124;5.480;2023-06-22T08:01:52;101784.78;;;24.95;61.72
76637;BME280;65532;52.124;5.480;2023-06-22T08:04:19;101773.44;;;25.10;62.50
76637;BME280;65532;52.124;5.480;2023-06-22T08:06:46;101764.81;;;25.25;60.70
76637;BME280;65532;52.124;5.480;2023-06-22T08:09:12;101765.84;;;25.57;60.86
76637;BME280;65532;52.124;5.480;2023-06-22T08:11:39;101759.59;;;26.01;59.44
76637;BME280;65532;52.124;5.480;2023-06-22T08:14:05;101758.59;;;25.97;58.59
76637;BME280;65532;52.124;5.480;2023-06-22T08:16:32;101750.50;;;26.23;57.09
76637;BME280;65532;52.124;5.480;2023-06-22T08:18:58;101746.84;;;26.59;57.07
76637;BME280;65532;52.124;5.480;2023-06-22T08:21:25;101746.06;;;26.67;55.91
76637;BME280;65532;52.124;5.480;2023-06-22T08:23:51;101742.41;;;26.35;55.56
76637;BME280;65532;52.124;5.480;2023-06-22T08:26:18;101739.41;;;26.76;55.68
76637;BME280;65532;52.124;5.480;2023-06-22T08:28:44;101731.25;;;27.02;53.99
76637;BME280;65532;52.124;5.480;2023-06-22T08:31:11;101724.97;;;26.66;55.28
76637;BME280;65532;52.124;5.480;2023-06-22T08:33:38;101713.41;;;26.72;55.98
76637;BME280;65532;52.124;5.480;2023-06-22T08:36:14;101714.06;;;27.00;54.37
76637;BME280;65532;52.124;5.480;2023-06-22T08:38:41;101716.72;;;27.14;52.98
76637;BME280;65532;52.124;5.480;2023-06-22T08:41:07;101711.47;;;27.04;53.56
76637;BME280;65532;52.124;5.480;2023-06-22T08:43:34;101716.22;;;27.12;51.54
76637;BME280;65532;52.124;5.480;2023-06-22T08:46:01;101712.63;;;27.11;51.12
76637;BME280;65532;52.124;5.480;2023-06-22T08:48:29;101709.31;;;26.70;53.26
76637;BME280;65532;52.124;5.480;2023-06-22T08:50:55;101712.78;;;26.75;52.67
76637;BME280;65532;52.124;5.480;2023-06-22T08:53:22;101696.56;;;26.69;53.06
76637;BME280;65532;52.124;5.480;2023-06-22T08:55:48;101699.75;;;26.93;52.23
76637;BME280;65532;52.124;5.480;2023-06-22T08:58:17;101702.44;;;27.55;50.70
76637;BME280;65532;52.124;5.480;2023-06-22T09:00:44;101705.53;;;27.54;48.16
76637;BME280;65532;52.124;5.480;2023-06-22T09:03:11;101700.09;;;27.40;48.13
76637;BME280;65532;52.124;5.480;2023-06-22T09:05:38;101709.66;;;27.08;49.44
76637;BME280;65532;52.124;5.480;2023-06-22T09:08:05;101710.88;;;26.93;50.57
76637;BME280;65532;52.124;5.480;2023-06-22T09:10:31;101710.44;;;27.00;50.74
76637;BME280;65532;52.124;5.480;2023-06-22T09:12:59;101709.03;;;26.80;50.63
76637;BME280;65532;52.124;5.480;2023-06-22T09:15:26;101700.56;;;26.85;51.71
76637;BME280;65532;52.124;5.480;2023-06-22T09:17:52;101705.13;;;27.21;50.19
76637;BME280;65532;52.124;5.480;2023-06-22T09:20:20;101702.84;;;26.83;51.47
76637;BME280;65532;52.124;5.480;2023-06-22T09:22:47;101701.50;;;27.11;50.10
76637;BME280;65532;52.124;5.480;2023-06-22T09:25:13;101697.56;;;27.12;51.80
76637;BME280;65532;52.124;5.480;2023-06-22T09:27:40;101701.91;;;26.96;50.43
76637;BME280;65532;52.124;5.480;2023-06-22T09:30:07;101699.22;;;27.13;50.31
76637;BME280;65532;52.124;5.480;2023-06-22T09:32:34;101707.88;;;27.03;50.25
76637;BME280;65532;52.124;5.480;2023-06-22T09:35:04;101704.97;;;27.26;47.90
76637;BME280;65532;52.124;5.480;2023-06-22T09:37:32;101697.44;;;27.26;48.33
76637;BME280;65532;52.124;5.480;2023-06-22T09:39:58;101700.31;;;27.61;46.72
76637;BME280;65532;52.124;5.480;2023-06-22T09:42:25;101695.22;;;27.54;46.63
76637;BME280;65532;52.124;5.480;2023-06-22T09:44:52;101697.84;;;27.59;48.48
76637;BME280;65532;52.124;5.480;2023-06-22T09:47:18;101692.50;;;27.89;46.78
76637;BME280;65532;52.124;5.480;2023-06-22T09:49:45;101697.72;;;28.08;47.15
76637;BME280;65532;52.124;5.480;2023-06-22T09:52:14;101696.78;;;27.78;47.50
76637;BME280;65532;52.124;5.480;2023-06-22T09:54:40;101686.22;;;27.57;48.29
76637;BME280;65532;52.124;5.480;2023-06-22T09:57:07;101694.84;;;27.30;48.20
76637;BME280;65532;52.124;5.480;2023-06-22T09:59:34;101690.28;;;27.34;48.45
76637;BME280;65532;52.124;5.480;2023-06-22T10:02:00;101685.31;;;26.74;50.58
76637;BME280;65532;52.124;5.480;2023-06-22T10:04:27;101686.06;;;26.66;50.28
76637;BME280;65532;52.124;5.480;2023-06-22T10:06:54;101691.53;;;26.48;51.68
76637;BME280;65532;52.124;5.480;2023-06-22T10:09:20;101688.44;;;26.50;49.04
76637;BME280;65532;52.124;5.480;2023-06-22T10:11:47;101699.59;;;26.59;48.69
76637;BME280;65532;52.124;5.480;2023-06-22T10:14:14;101696.50;;;26.60;46.83
76637;BME280;65532;52.124;5.480;2023-06-22T10:16:41;101692.44;;;26.35;46.46
76637;BME280;65532;52.124;5.480;2023-06-22T10:19:08;101685.09;;;25.94;47.97
76637;BME280;65532;52.124;5.480;2023-06-22T10:21:35;101689.19;;;25.61;48.54
76637;BME280;65532;52.124;5.480;2023-06-22T10:24:02;101685.94;;;25.45;48.34
76637;BME280;65532;52.124;5.480;2023-06-22T10:26:33;101682.13;;;25.41;51.34
76637;BME280;65532;52.124;5.480;2023-06-22T10:29:00;101683.88;;;25.37;50.43
76637;BME280;65532;52.124;5.480;2023-06-22T10:31:42;101689.84;;;25.44;51.19
76637;BME280;65532;52.124;5.480;2023-06-22T10:34:08;101682.97;;;25.42;51.98
76637;BME280;65532;52.124;5.480;2023-06-22T10:36:35;101688.63;;;25.09;51.83
76637;BME280;65532;52.124;5.480;2023-06-22T10:39:02;101690.16;;;25.15;52.47
76637;BME280;65532;52.124;5.480;2023-06-22T10:41:29;101691.41;;;25.09;52.53
76637;BME280;65532;52.124;5.480;2023-06-22T10:43:57;101683.28;;;25.13;52.49
76637;BME280;65532;52.124;5.480;2023-06-22T10:46:24;101690.63;;;24.90;53.04
76637;BME280;65532;52.124;5.480;2023-06-22T10:48:52;101688.91;;;24.94;53.67
76637;BME280;65532;52.124;5.480;2023-06-22T10:51:21;101686.00;;;24.71;53.92
76637;BME280;65532;52.124;5.480;2023-06-22T10:53:47;101691.66;;;24.66;54.16
76637;BME280;65532;52.124;5.480;2023-06-22T10:56:14;101684.47;;;24.65;54.96
76637;BME280;65532;52.124;5.480;2023-06-22T10:58:40;101692.78;;;24.65;54.51
76637;BME280;65532;52.124;5.480;2023-06-22T11:01:07;101689.19;;;24.65;55.12
76637;BME280;65532;52.124;5.480;2023-06-22T11:03:42;101690.81;;;24.66;55.13
76637;BME280;65532;52.124;5.480;2023-06-22T11:06:09;101688.38;;;24.64;55.70
76637;BME280;65532;52.124;5.480;2023-06-22T11:08:35;101684.19;;;24.81;55.99
76637;BME280;65532;52.124;5.480;2023-06-22T11:11:02;101677.28;;;24.92;55.55
76637;BME280;65532;52.124;5.480;2023-06-22T11:13:28;101668.78;;;24.88;56.82
76637;BME280;65532;52.124;5.480;2023-06-22T11:15:55;101665.41;;;25.19;56.62
76637;BME280;65532;52.124;5.480;2023-06-22T11:18:22;101660.97;;;25.31;57.28
76637;BME280;65532;52.124;5.480;2023-06-22T11:20:49;101662.28;;;25.48;57.43
76637;BME280;65532;52.124;5.480;2023-06-22T11:23:18;101661.28;;;25.44;55.47
76637;BME280;65532;52.124;5.480;2023-06-22T11:25:45;101663.75;;;25.31;56.88
76637;BME280;65532;52.124;5.480;2023-06-22T11:28:12;101661.31;;;25.30;55.87
76637;BME280;65532;52.124;5.480;2023-06-22T11:30:39;101660.88;;;25.36;56.94
76637;BME280;65532;52.124;5.480;2023-06-22T11:33:06;101663.34;;;25.24;56.78
76637;BME280;65532;52.124;5.480;2023-06-22T11:35:32;101651.53;;;25.32;57.09
76637;BME280;65532;52.124;5.480;2023-06-22T11:37:59;101650.09;;;25.21;56.97
76637;BME280;65532;52.124;5.480;2023-06-22T11:40:25;101648.66;;;25.24;58.46
76637;BME280;65532;52.124;5.480;2023-06-22T11:42:52;101646.69;;;25.24;57.31
76637;BME280;65532;52.124;5.480;2023-06-22T11:45:19;101634.72;;;25.15;58.57
76637;BME280;65532;52.124;5.480;2023-06-22T11:47:47;101632.97;;;25.19;56.16
76637;BME280;65532;52.124;5.480;2023-06-22T11:50:13;101628.66;;;25.13;57.64
76637;BME280;65532;52.124;5.480;2023-06-22T11:52:40;101637.28;;;24.98;57.18
76637;BME280;65532;52.124;5.480;2023-06-22T11:55:07;101632.78;;;25.02;58.09
76637;BME280;65532;52.124;5.480;2023-06-22T11:57:35;101629.25;;;25.24;57.10
76637;BME280;65532;52.124;5.480;2023-06-22T12:00:05;101633.31;;;25.40;57.32
76637;BME280;65532;52.124;5.480;2023-06-22T12:02:46;101632.50;;;25.39;57.70
76637;BME280;65532;52.124;5.480;2023-06-22T12:05:13;101634.78;;;25.37;57.58
76637;BME280;65532;52.124;5.480;2023-06-22T12:07:39;101635.38;;;25.48;57.32
76637;BME280;65532;52.124;5.480;2023-06-22T12:10:06;101633.31;;;25.40;57.46
76637;BME280;65532;52.124;5.480;2023-06-22T12:12:33;101632.63;;;25.34;57.43
76637;BME280;65532;52.124;5.480;2023-06-22T12:15:00;101626.91;;;25.17;57.58
76637;BME280;65532;52.124;5.480;2023-06-22T12:17:30;101623.97;;;25.00;58.50
76637;BME280;65532;52.124;5.480;2023-06-22T12:19:56;101628.06;;;25.02;60.71
76637;BME280;65532;52.124;5.480;2023-06-22T12:22:23;101629.50;;;25.00;58.61
76637;BME280;65532;52.124;5.480;2023-06-22T12:24:49;101632.03;;;24.69;59.72
76637;BME280;65532;52.124;5.480;2023-06-22T12:27:17;101630.06;;;24.56;62.54
76637;BME280;65532;52.124;5.480;2023-06-22T12:29:45;101629.88;;;24.52;63.30
76637;BME280;65532;52.124;5.480;2023-06-22T12:32:12;101626.66;;;24.45;63.56
76637;BME280;65532;52.124;5.480;2023-06-22T12:34:42;101629.03;;;24.38;65.70
76637;BME280;65532;52.124;5.480;2023-06-22T12:37:08;101623.63;;;24.28;65.77
76637;BME280;65532;52.124;5.480;2023-06-22T12:39:35;101620.09;;;24.08;64.97
76637;BME280;65532;52.124;5.480;2023-06-22T12:42:02;101617.53;;;23.79;69.62
76637;BME280;65532;52.124;5.480;2023-06-22T12:44:28;101619.25;;;23.56;71.83
76637;BME280;65532;52.124;5.480;2023-06-22T12:46:55;101619.19;;;23.43;72.23
76637;BME280;65532;52.124;5.480;2023-06-22T12:49:21;101612.44;;;23.49;74.78
76637;BME280;65532;52.124;5.480;2023-06-22T12:51:48;101606.41;;;23.66;72.48
76637;BME280;65532;52.124;5.480;2023-06-22T12:54:14;101607.09;;;23.76;73.39
76637;BME280;65532;52.124;5.480;2023-06-22T12:56:41;101607.09;;;23.76;73.41